sensor_id;sensor_type;location;lat;lon;timestamp;P1;durP1;ratioP1;P2;durP2;ratioP2
53285;SDS011;39171;45.550;12.074;2023-10-09T00:03:31;13.00;;;10.45;;
53285;SDS011;39171;45.550;12.074;2023-10-09T00:09:34;12.88;;;10.75;;
53285;SDS011;39171;45.550;12.074;2023-10-09T00:15:48;13.88;;;10.70;;
53285;SDS011;39171;45.550;12.074;2023-10-09T00:21:54;15.27;;;11.45;;
53285;SDS011;39171;45.550;12.074;2023-10-09T00:27:56;14.65;;;11.10;;
53285;SDS011;39171;45.550;12.074;2023-10-09T00:34:03;13.25;;;10.70;;
53285;SDS011;39171;45.550;12.074;2023-10-09T00:40:06;16.60;;;10.98;;
53285;SDS011;39171;45.550;12.074;2023-10-09T00:46:21;12.38;;;10.18;;
53285;SDS011;39171;45.550;12.074;2023-10-09T00:52:22;14.68;;;10.48;;
53285;SDS011;39171;45.550;12.074;2023-10-09T00:58:37;12.45;;;9.77;;
53285;SDS011;39171;45.550;12.074;2023-10-09T01:04:41;11.73;;;8.70;;
53285;SDS011;39171;45.550;12.074;2023-10-09T01:10:47;12.18;;;8.80;;
53285;SDS011;39171;45.550;12.074;2023-10-09T01:16:54;11.52;;;8.95;;
53285;SDS011;39171;45.550;12.074;2023-10-09T01:22:55;12.43;;;9.93;;
53285;SDS011;39171;45.550;12.074;2023-10-09T01:28:57;12.82;;;10.55;;
53285;SDS011;39171;45.550;12.074;2023-10-09T01:35:01;13.85;;;10.52;;
53285;SDS011;39171;45.550;12.074;2023-10-09T01:41:02;12.40;;;9.82;;
53285;SDS011;39171;45.550;12.074;2023-10-09T01:47:08;13.63;;;9.95;;
53285;SDS011;39171;45.550;12.074;2023-10-09T01:53:15;12.30;;;9.68;;
53285;SDS011;39171;45.550;12.074;2023-10-09T01:59:19;12.73;;;9.73;;
53285;SDS011;39171;45.550;12.074;2023-10-09T02:05:21;13.80;;;10.15;;
53285;SDS011;39171;45.550;12.074;2023-10-09T02:11:23;12.30;;;9.98;;
53285;SDS011;39171;45.550;12.074;2023-10-09T02:17:40;15.20;;;11.10;;
53285;SDS011;39171;45.550;12.074;2023-10-09T02:23:52;13.00;;;10.43;;
53285;SDS011;39171;45.550;12.074;2023-10-09T02:29:57;14.15;;;11.48;;
53285;SDS011;39171;45.550;12.074;2023-10-09T02:35:59;13.23;;;10.88;;
53285;SDS011;39171;45.550;12.074;2023-10-09T02:42:06;13.93;;;10.77;;
53285;SDS011;39171;45.550;12.074;2023-10-09T02:48:20;13.15;;;10.13;;
53285;SDS011;39171;45.550;12.074;2023-10-09T02:54:26;13.60;;;11.30;;
53285;SDS011;39171;45.550;12.074;2023-10-09T03:00:37;12.88;;;10.27;;
53285;SDS011;39171;45.550;12.074;2023-10-09T03:06:38;13.20;;;10.30;;
53285;SDS011;39171;45.550;12.074;2023-10-09T03:12:44;13.82;;;10.57;;
53285;SDS011;39171;45.550;12.074;2023-10-09T03:18:49;13.25;;;10.57;;
53285;SDS011;39171;45.550;12.074;2023-10-09T03:24:52;13.10;;;10.60;;
53285;SDS011;39171;45.550;12.074;2023-10-09T03:30:53;16.60;;;12.32;;
53285;SDS011;39171;45.550;12.074;2023-10-09T03:36:55;13.85;;;10.10;;
53285;SDS011;39171;45.550;12.074;2023-10-09T03:43:06;12.93;;;10.10;;
53285;SDS011;39171;45.550;12.074;2023-10-09T03:49:11;14.93;;;11.52;;
53285;SDS011;39171;45.550;12.074;2023-10-09T03:55:13;14.93;;;11.68;;
53285;SDS011;39171;45.550;12.074;2023-10-09T04:01:17;14.27;;;11.02;;
53285;SDS011;39171;45.550;12.074;2023-10-09T04:07:38;16.60;;;12.20;;
53285;SDS011;39171;45.550;12.074;2023-10-09T04:13:43;15.30;;;12.60;;
53285;SDS011;39171;45.550;12.074;2023-10-09T04:19:47;14.85;;;11.57;;
53285;SDS011;39171;45.550;12.074;2023-10-09T04:25:48;17.42;;;13.57;;
53285;SDS011;39171;45.550;12.074;2023-10-09T04:31:55;17.00;;;13.23;;
53285;SDS011;39171;45.550;12.074;2023-10-09T04:37:57;16.70;;;12.65;;
53285;SDS011;39171;45.550;12.074;2023-10-09T04:44:07;16.50;;;13.35;;
53285;SDS011;39171;45.550;12.074;2023-10-09T04:50:30;16.83;;;13.63;;
53285;SDS011;39171;45.550;12.074;2023-10-09T04:56:31;19.00;;;15.23;;
53285;SDS011;39171;45.550;12.074;2023-10-09T05:02:34;18.83;;;15.23;;
53285;SDS011;39171;45.550;12.074;2023-10-09T05:08:39;19.88;;;14.77;;
53285;SDS011;39171;45.550;12.074;2023-10-09T05:14:46;20.15;;;15.95;;
53285;SDS011;39171;45.550;12.074;2023-10-09T05:21:08;17.67;;;13.57;;
53285;SDS011;39171;45.550;12.074;2023-10-09T05:27:28;18.58;;;15.23;;
53285;SDS011;39171;45.550;12.074;2023-10-09T05:33:51;18.20;;;13.93;;
53285;SDS011;39171;45.550;12.074;2023-10-09T05:39:54;17.40;;;13.20;;
53285;SDS011;39171;45.550;12.074;2023-10-09T05:46:02;18.30;;;13.63;;
53285;SDS011;39171;45.550;12.074;2023-10-09T05:52:10;16.83;;;13.35;;
53285;SDS011;39171;45.550;12.074;2023-10-09T05:58:30;18.20;;;14.10;;
53285;SDS011;39171;45.550;12.074;2023-10-09T06:04:57;16.60;;;12.75;;
53285;SDS011;39171;45.550;12.074;2023-10-09T06:11:00;17.15;;;13.43;;
53285;SDS011;39171;45.550;12.074;2023-10-09T06:17:28;16.02;;;12.77;;
53285;SDS011;39171;45.550;12.074;2023-10-09T06:23:44;16.50;;;12.27;;
53285;SDS011;39171;45.550;12.074;2023-10-09T06:30:03;16.33;;;12.23;;
53285;SDS011;39171;45.550;12.074;2023-10-09T06:36:19;14.73;;;11.30;;
53285;SDS011;39171;45.550;12.074;2023-10-09T06:42:25;14.38;;;10.60;;
53285;SDS011;39171;45.550;12.074;2023-10-09T06:48:39;14.40;;;11.13;;
53285;SDS011;39171;45.550;12.074;2023-10-09T06:54:40;14.40;;;10.98;;
53285;SDS011;39171;45.550;12.074;2023-10-09T07:00:50;13.07;;;10.10;;
53285;SDS011;39171;45.550;12.074;2023-10-09T07:07:30;12.48;;;9.77;;
53285;SDS011;39171;45.550;12.074;2023-10-09T07:13:36;11.05;;;8.77;;
53285;SDS011;39171;45.550;12.074;2023-10-09T07:19:38;12.35;;;9.98;;
53285;SDS011;39171;45.550;12.074;2023-10-09T07:25:42;11.30;;;8.10;;
53285;SDS011;39171;45.550;12.074;2023-10-09T07:31:57;10.00;;;7.68;;
53285;SDS011;39171;45.550;12.074;2023-10-09T07:37:59;9.05;;;6.90;;
53285;SDS011;39171;45.550;12.074;2023-10-09T07:44:03;9.63;;;6.13;;
53285;SDS011;39171;45.550;12.074;2023-10-09T07:50:19;7.13;;;5.95;;
53285;SDS011;39171;45.550;12.074;2023-10-09T07:56:26;6.53;;;5.78;;
53285;SDS011;39171;45.550;12.074;2023-10-09T08:02:31;6.35;;;5.38;;
53285;SDS011;39171;45.550;12.074;2023-10-09T08:08:33;5.68;;;5.03;;
53285;SDS011;39171;45.550;12.074;2023-10-09T08:14:34;5.88;;;4.40;;
53285;SDS011;39171;45.550;12.074;2023-10-09T08:20:36;5.40;;;4.13;;
53285;SDS011;39171;45.550;12.074;2023-10-09T08:26:56;4.78;;;3.83;;
53285;SDS011;39171;45.550;12.074;2023-10-09T08:33:18;3.80;;;3.38;;
53285;SDS011;39171;45.550;12.074;2023-10-09T08:39:28;3.60;;;3.20;;
53285;SDS011;39171;45.550;12.074;2023-10-09T08:45:38;3.50;;;2.78;;
53285;SDS011;39171;45.550;12.074;2023-10-09T08:51:40;3.53;;;2.83;;
53285;SDS011;39171;45.550;12.074;2023-10-09T08:57:45;3.30;;;2.58;;
53285;SDS011;39171;45.550;12.074;2023-10-09T09:03:48;2.95;;;2.28;;
53285;SDS011;39171;45.550;12.074;2023-10-09T09:09:57;2.90;;;2.10;;
53285;SDS011;39171;45.550;12.074;2023-10-09T09:16:04;4.18;;;3.20;;
53285;SDS011;39171;45.550;12.074;2023-10-09T09:22:07;3.40;;;2.58;;
53285;SDS011;39171;45.550;12.074;2023-10-09T09:28:15;3.55;;;2.70;;
53285;SDS011;39171;45.550;12.074;2023-10-09T09:34:22;5.63;;;3.88;;
53285;SDS011;39171;45.550;12.074;2023-10-09T09:40:30;5.40;;;4.18;;
53285;SDS011;39171;45.550;12.074;2023-10-09T09:46:42;4.35;;;3.47;;
53285;SDS011;39171;45.550;12.074;2023-10-09T09:52:45;4.65;;;3.75;;
53285;SDS011;39171;45.550;12.074;2023-10-09T09:58:49;9.45;;;6.47;;
53285;SDS011;39171;45.550;12.074;2023-10-09T10:04:55;11.93;;;7.72;;
53285;SDS011;39171;45.550;12.074;2023-10-09T10:10:59;10.93;;;7.90;;
53285;SDS011;39171;45.550;12.074;2023-10-09T10:17:07;10.60;;;7.20;;
53285;SDS011;39171;45.550;12.074;2023-10-09T10:23:18;15.65;;;10.88;;
53285;SDS011;39171;45.550;12.074;2023-10-09T10:29:21;13.43;;;10.27;;
53285;SDS011;39171;45.550;12.074;2023-10-09T10:35:35;12.75;;;9.38;;
53285;SDS011;39171;45.550;12.074;2023-10-09T10:41:58;14.68;;;10.68;;
53285;SDS011;39171;45.550;12.074;2023-10-09T10:48:05;10.73;;;8.18;;
53285;SDS011;39171;45.550;12.074;2023-10-09T10:54:10;18.08;;;12.80;;
53285;SDS011;39171;45.550;12.074;2023-10-09T11:00:30;17.25;;;12.80;;
53285;SDS011;39171;45.550;12.074;2023-10-09T11:06:54;19.67;;;14.05;;
53285;SDS011;39171;45.550;12.074;2023-10-09T11:13:23;15.00;;;11.43;;
53285;SDS011;39171;45.550;12.074;2023-10-09T11:19:32;24.80;;;16.02;;
53285;SDS011;39171;45.550;12.074;2023-10-09T11:25:42;22.40;;;15.55;;
53285;SDS011;39171;45.550;12.074;2023-10-09T11:32:06;13.25;;;9.88;;
53285;SDS011;39171;45.550;12.074;2023-10-09T11:38:18;17.27;;;12.52;;
53285;SDS011;39171;45.550;12.074;2023-10-09T11:44:37;19.85;;;14.98;;
53285;SDS011;39171;45.550;12.074;2023-10-09T11:56:57;19.23;;;14.20;;
53285;SDS011;39171;45.550;12.074;2023-10-09T12:03:01;17.75;;;12.30;;
53285;SDS011;39171;45.550;12.074;2023-10-09T12:09:05;25.80;;;16.85;;
53285;SDS011;39171;45.550;12.074;2023-10-09T12:15:08;24.67;;;15.82;;
53285;SDS011;39171;45.550;12.074;2023-10-09T12:21:18;22.85;;;15.68;;
53285;SDS011;39171;45.550;12.074;2023-10-09T12:27:21;24.85;;;16.65;;
53285;SDS011;39171;45.550;12.074;2023-10-09T12:33:22;30.30;;;20.63;;
53285;SDS011;39171;45.550;12.074;2023-10-09T12:39:36;31.02;;;21.00;;
53285;SDS011;39171;45.550;12.074;2023-10-09T12:45:41;23.80;;;15.75;;
53285;SDS011;39171;45.550;12.074;2023-10-09T12:51:46;20.05;;;14.45;;
53285;SDS011;39171;45.550;12.074;2023-10-09T12:57:47;28.25;;;19.73;;
53285;SDS011;39171;45.550;12.074;2023-10-09T13:03:49;30.15;;;19.75;;
53285;SDS011;39171;45.550;12.074;2023-10-09T13:09:50;27.60;;;18.80;;
53285;SDS011;39171;45.550;12.074;2023-10-09T13:16:14;25.35;;;16.90;;
53285;SDS011;39171;45.550;12.074;2023-10-09T13:22:26;24.50;;;17.83;;
53285;SDS011;39171;45.550;12.074;2023-10-09T13:28:28;27.00;;;18.92;;
53285;SDS011;39171;45.550;12.074;2023-10-09T13:34:30;18.75;;;13.95;;
53285;SDS011;39171;45.550;12.074;2023-10-09T13:40:34;25.33;;;16.73;;
53285;SDS011;39171;45.550;12.074;2023-10-09T13:46:38;21.95;;;14.88;;
53285;SDS011;39171;45.550;12.074;2023-10-09T13:52:45;27.02;;;18.00;;
53285;SDS011;39171;45.550;12.074;2023-10-09T13:58:50;29.00;;;18.65;;
53285;SDS011;39171;45.550;12.074;2023-10-09T14:04:52;26.38;;;19.65;;
53285;SDS011;39171;45.550;12.074;2023-10-09T14:10:55;22.13;;;17.90;;
53285;SDS011;39171;45.550;12.074;2023-10-09T14:16:56;31.27;;;21.65;;
53285;SDS011;39171;45.550;12.074;2023-10-09T14:22:59;26.48;;;19.88;;
53285;SDS011;39171;45.550;12.074;2023-10-09T14:29:07;24.35;;;17.75;;
53285;SDS011;39171;45.550;12.074;2023-10-09T14:35:09;24.55;;;18.23;;
53285;SDS011;39171;45.550;12.074;2023-10-09T14:41:22;25.10;;;18.65;;
53285;SDS011;39171;45.550;12.074;2023-10-09T14:47:24;24.10;;;17.60;;
53285;SDS011;39171;45.550;12.074;2023-10-09T14:53:30;28.88;;;20.13;;
53285;SDS011;39171;45.550;12.074;2023-10-09T14:59:32;32.15;;;20.75;;
53285;SDS011;39171;45.550;12.074;2023-10-09T15:05:34;20.60;;;15.57;;
53285;SDS011;39171;45.550;12.074;2023-10-09T15:11:35;27.38;;;18.80;;
53285;SDS011;39171;45.550;12.074;2023-10-09T15:17:41;25.10;;;18.17;;
53285;SDS011;39171;45.550;12.074;2023-10-09T15:23:52;24.08;;;17.25;;
53285;SDS011;39171;45.550;12.074;2023-10-09T15:29:55;25.10;;;18.38;;
53285;SDS011;39171;45.550;12.074;2023-10-09T15:35:56;24.52;;;18.23;;
53285;SDS011;39171;45.550;12.074;2023-10-09T15:42:00;24.80;;;17.90;;
53285;SDS011;39171;45.550;12.074;2023-10-09T15:48:05;23.02;;;15.77;;
53285;SDS011;39171;45.550;12.074;2023-10-09T15:54:07;25.45;;;17.95;;
53285;SDS011;39171;45.550;12.074;2023-10-09T16:00:12;19.17;;;15.40;;
53285;SDS011;39171;45.550;12.074;2023-10-09T16:06:19;20.77;;;16.33;;
53285;SDS011;39171;45.550;12.074;2023-10-09T16:12:21;17.85;;;14.65;;
53285;SDS011;39171;45.550;12.074;2023-10-09T16:18:24;21.70;;;16.10;;
53285;SDS011;39171;45.550;12.074;2023-10-09T16:24:25;18.55;;;14.82;;
53285;SDS011;39171;45.550;12.074;2023-10-09T16:30:27;20.23;;;16.08;;
53285;SDS011;39171;45.550;12.074;2023-10-09T16:36:32;18.45;;;14.27;;
53285;SDS011;39171;45.550;12.074;2023-10-09T16:42:37;21.08;;;15.70;;
53285;SDS011;39171;45.550;12.074;2023-10-09T16:48:39;17.38;;;13.82;;
53285;SDS011;39171;45.550;12.074;2023-10-09T16:54:40;22.35;;;16.75;;
53285;SDS011;39171;45.550;12.074;2023-10-09T17:00:54;19.23;;;14.75;;
53285;SDS011;39171;45.550;12.074;2023-10-09T17:06:57;15.18;;;12.50;;
53285;SDS011;39171;45.550;12.074;2023-10-09T17:12:59;21.92;;;16.13;;
53285;SDS011;39171;45.550;12.074;2023-10-09T17:19:01;18.45;;;14.50;;
53285;SDS011;39171;45.550;12.074;2023-10-09T17:25:06;11.43;;;10.18;;
53285;SDS011;39171;45.550;12.074;2023-10-09T17:31:13;12.20;;;10.65;;
53285;SDS011;39171;45.550;12.074;2023-10-09T17:37:21;16.27;;;12.20;;
53285;SDS011;39171;45.550;12.074;2023-10-09T17:43:23;12.43;;;10.63;;
53285;SDS011;39171;45.550;12.074;2023-10-09T17:49:32;12.53;;;10.60;;
53285;SDS011;39171;45.550;12.074;2023-10-09T17:55:34;14.90;;;11.32;;
53285;SDS011;39171;45.550;12.074;2023-10-09T18:01:37;10.05;;;8.23;;
53285;SDS011;39171;45.550;12.074;2023-10-09T18:14:17;6.57;;;5.82;;
53285;SDS011;39171;45.550;12.074;2023-10-09T18:20:18;8.07;;;7.20;;
53285;SDS011;39171;45.550;12.074;2023-10-09T18:26:21;7.28;;;5.78;;
53285;SDS011;39171;45.550;12.074;2023-10-09T18:32:24;7.18;;;6.18;;
53285;SDS011;39171;45.550;12.074;2023-10-09T18:38:26;6.43;;;5.25;;
53285;SDS011;39171;45.550;12.074;2023-10-09T18:44:27;5.20;;;4.55;;
53285;SDS011;39171;45.550;12.074;2023-10-09T18:50:30;4.00;;;3.45;;
53285;SDS011;39171;45.550;12.074;2023-10-09T18:56:32;4.45;;;3.72;;
53285;SDS011;39171;45.550;12.074;2023-10-09T19:02:35;3.97;;;3.50;;
53285;SDS011;39171;45.550;12.074;2023-10-09T19:08:39;4.25;;;3.20;;
53285;SDS011;39171;45.550;12.074;2023-10-09T19:14:48;4.65;;;3.50;;
53285;SDS011;39171;45.550;12.074;2023-10-09T19:21:06;4.13;;;3.58;;
53285;SDS011;39171;45.550;12.074;2023-10-09T19:27:11;5.10;;;3.65;;
53285;SDS011;39171;45.550;12.074;2023-10-09T19:33:14;4.90;;;3.65;;
53285;SDS011;39171;45.550;12.074;2023-10-09T19:39:15;4.13;;;3.05;;
53285;SDS011;39171;45.550;12.074;2023-10-09T19:45:17;4.80;;;3.85;;
53285;SDS011;39171;45.550;12.074;2023-10-09T19:51:22;4.50;;;3.60;;
53285;SDS011;39171;45.550;12.074;2023-10-09T19:57:24;5.35;;;4.22;;
53285;SDS011;39171;45.550;12.074;2023-10-09T20:03:26;5.93;;;4.15;;
53285;SDS011;39171;45.550;12.074;2023-10-09T20:09:28;5.75;;;4.43;;
53285;SDS011;39171;45.550;12.074;2023-10-09T20:15:30;5.35;;;4.10;;
53285;SDS011;39171;45.550;12.074;2023-10-09T20:21:34;7.18;;;5.15;;
53285;SDS011;39171;45.550;12.074;2023-10-09T20:27:36;7.43;;;5.22;;
53285;SDS011;39171;45.550;12.074;2023-10-09T20:33:39;8.27;;;5.85;;
53285;SDS011;39171;45.550;12.074;2023-10-09T20:39:43;7.75;;;5.65;;
53285;SDS011;39171;45.550;12.074;2023-10-09T20:45:46;9.13;;;6.32;;
53285;SDS011;39171;45.550;12.074;2023-10-09T20:51:48;8.45;;;6.60;;
53285;SDS011;39171;45.550;12.074;2023-10-09T20:57:52;9.55;;;6.88;;
53285;SDS011;39171;45.550;12.074;2023-10-09T21:03:57;8.43;;;6.13;;
53285;SDS011;39171;45.550;12.074;2023-10-09T21:09:59;9.23;;;6.32;;
53285;SDS011;39171;45.550;12.074;2023-10-09T21:16:02;9.27;;;6.80;;
53285;SDS011;39171;45.550;12.074;2023-10-09T21:22:05;8.07;;;5.95;;
53285;SDS011;39171;45.550;12.074;2023-10-09T21:28:07;7.85;;;6.60;;
53285;SDS011;39171;45.550;12.074;2023-10-09T21:34:08;8.98;;;7.18;;
53285;SDS011;39171;45.550;12.074;2023-10-09T21:40:12;10.40;;;8.32;;
53285;SDS011;39171;45.550;12.074;2023-10-09T21:46:24;12.65;;;8.52;;
53285;SDS011;39171;45.550;12.074;2023-10-09T21:52:26;11.88;;;9.27;;
53285;SDS011;39171;45.550;12.074;2023-10-09T21:58:27;11.13;;;8.43;;
53285;SDS011;39171;45.550;12.074;2023-10-09T22:04:29;11.77;;;8.75;;
53285;SDS011;39171;45.550;12.074;2023-10-09T22:10:31;12.10;;;8.38;;
53285;SDS011;39171;45.550;12.074;2023-10-09T22:16:32;11.10;;;8.30;;
53285;SDS011;39171;45.550;12.074;2023-10-09T22:22:34;10.95;;;8.15;;
53285;SDS011;39171;45.550;12.074;2023-10-09T22:28:44;11.20;;;8.63;;
53285;SDS011;39171;45.550;12.074;2023-10-09T22:34:47;10.50;;;8.75;;
53285;SDS011;39171;45.550;12.074;2023-10-09T22:40:52;10.77;;;8.32;;
53285;SDS011;39171;45.550;12.074;2023-10-09T22:46:53;8.75;;;7.25;;
53285;SDS011;39171;45.550;12.074;2023-10-09T22:52:56;10.13;;;8.18;;
53285;SDS011;39171;45.550;12.074;2023-10-09T22:59:03;11.45;;;8.63;;
53285;SDS011;39171;45.550;12.074;2023-10-09T23:05:21;10.00;;;7.90;;
53285;SDS011;39171;45.550;12.074;2023-10-09T23:11:31;11.40;;;8.65;;
53285;SDS011;39171;45.550;12.074;2023-10-09T23:17:33;13.98;;;9.93;;
53285;SDS011;39171;45.550;12.074;2023-10-09T23:23:45;9.82;;;7.32;;
53285;SDS011;39171;45.550;12.074;2023-10-09T23:29:51;12.02;;;8.85;;
53285;SDS011;39171;45.550;12.074;2023-10-09T23:35:52;12.23;;;8.55;;
53285;SDS011;39171;45.550;12.074;2023-10-09T23:42:06;12.25;;;8.80;;
